createdAt,value
2022-08-26T00:00:36.002Z,58.77
2022-08-26T00:03:03.450Z,59.13
2022-08-26T00:05:30.272Z,59.33
2022-08-26T00:07:57.302Z,59.52
2022-08-26T00:10:25.878Z,58.81
2022-08-26T00:12:52.443Z,59.57
2022-08-26T00:15:21.448Z,59.56
2022-08-26T00:17:49.299Z,59.43
2022-08-26T00:20:19.493Z,59.62
2022-08-26T00:22:46.246Z,59.80
2022-08-26T00:25:13.636Z,57.64
2022-08-26T00:27:44.172Z,57.08
2022-08-26T00:30:14.549Z,56.60
2022-08-26T00:32:41.470Z,56.73
2022-08-26T00:35:13.136Z,56.69
2022-08-26T00:37:41.886Z,58.16
2022-08-26T00:40:13.656Z,59.01
2022-08-26T00:42:40.682Z,59.49
2022-08-26T00:45:13.779Z,60.15
2022-08-26T00:47:45.881Z,60.78
2022-08-26T00:50:19.122Z,62.68
2022-08-26T00:52:46.490Z,63.37
2022-08-26T00:55:22.174Z,63.76
2022-08-26T00:57:50.696Z,64.60
2022-08-26T01:00:21.706Z,65.00
2022-08-26T01:02:49.508Z,65.90
2022-08-26T01:05:17.581Z,67.86
2022-08-26T01:07:45.022Z,68.37
2022-08-26T01:10:19.261Z,69.32
2022-08-26T01:12:53.742Z,69.83
2022-08-26T01:15:24.185Z,69.97
2022-08-26T01:17:51.234Z,70.79
2022-08-26T01:20:39.688Z,71.97
2022-08-26T01:23:08.881Z,71.63
2022-08-26T01:25:43.101Z,72.46
2022-08-26T01:28:31.579Z,72.63
2022-08-26T01:30:59.586Z,73.36
2022-08-26T01:33:39.950Z,73.62
2022-08-26T01:36:10.988Z,73.99
2022-08-26T01:38:37.734Z,74.30
2022-08-26T01:41:04.933Z,74.60
2022-08-26T01:43:48.411Z,74.81
2022-08-26T01:46:17.287Z,75.13
2022-08-26T01:48:45.822Z,75.74
2022-08-26T01:51:15.708Z,76.19
2022-08-26T01:53:43.665Z,76.53
2022-08-26T01:56:15.390Z,76.76
2022-08-26T01:58:48.470Z,77.46
2022-08-26T02:01:15.521Z,77.93
2022-08-26T02:04:01.201Z,77.82
2022-08-26T02:06:28.074Z,78.09
2022-08-26T02:08:59.721Z,78.39
2022-08-26T02:11:26.177Z,78.66
2022-08-26T02:13:57.321Z,78.56
2022-08-26T02:16:27.477Z,78.80
2022-08-26T02:18:55.841Z,78.96
2022-08-26T02:21:22.863Z,79.12
2022-08-26T02:23:52.366Z,79.27
2022-08-26T02:26:26.824Z,79.49
2022-08-26T02:29:05.219Z,80.25
2022-08-26T02:31:34.131Z,79.97
2022-08-26T02:34:12.630Z,80.22
2022-08-26T02:36:40.141Z,80.45
2022-08-26T02:39:08.052Z,81.04
2022-08-26T02:41:35.501Z,81.28
2022-08-26T02:44:11.599Z,81.37
2022-08-26T02:46:39.135Z,81.64
2022-08-26T02:49:06.618Z,81.62
2022-08-26T02:51:33.705Z,81.73
2022-08-26T02:54:00.147Z,81.81
2022-08-26T02:56:28.004Z,82.07
2022-08-26T02:58:54.539Z,82.26
2022-08-26T03:01:28.576Z,82.16
2022-08-26T03:03:56.154Z,82.73
2022-08-26T03:06:22.736Z,82.41
2022-08-26T03:08:49.686Z,82.56
2022-08-26T03:11:16.929Z,82.86
2022-08-26T03:13:43.462Z,83.07
2022-08-26T03:16:10.030Z,82.24
2022-08-26T03:18:36.678Z,82.69
2022-08-26T03:21:11.993Z,83.32
2022-08-26T03:23:40.259Z,83.71
2022-08-26T03:26:07.821Z,83.41
2022-08-26T03:28:57.890Z,83.13
2022-08-26T03:31:25.432Z,83.42
2022-08-26T03:33:52.467Z,83.52
2022-08-26T03:36:21.129Z,83.52
2022-08-26T03:38:47.974Z,83.91
2022-08-26T03:41:15.078Z,84.03
2022-08-26T03:43:41.587Z,84.21
2022-08-26T03:46:10.397Z,83.74
2022-08-26T03:48:37.183Z,83.03
2022-08-26T03:51:10.955Z,82.82
2022-08-26T03:53:38.025Z,82.29
2022-08-26T03:56:06.511Z,82.24
2022-08-26T03:58:33.251Z,82.45
2022-08-26T04:01:00.207Z,82.91
2022-08-26T04:03:56.322Z,83.06
2022-08-26T04:06:33.569Z,82.64
2022-08-26T04:09:02.351Z,82.63
2022-08-26T04:11:34.668Z,81.54
2022-08-26T04:14:05.536Z,80.60
2022-08-26T04:16:32.551Z,80.89
2022-08-26T04:18:59.204Z,80.13
2022-08-26T04:21:26.859Z,79.62
2022-08-26T04:23:53.922Z,80.41
2022-08-26T04:26:22.173Z,80.78
2022-08-26T04:28:50.296Z,79.96
2022-08-26T04:31:17.881Z,80.45
2022-08-26T04:33:47.607Z,79.52
2022-08-26T04:36:17.530Z,78.89
2022-08-26T04:38:46.468Z,78.88
2022-08-26T04:41:15.235Z,79.14
2022-08-26T04:43:43.661Z,78.59
2022-08-26T04:46:12.849Z,78.15
2022-08-26T04:48:41.048Z,78.62
2022-08-26T04:51:09.135Z,79.50
2022-08-26T04:53:38.922Z,78.38
2022-08-26T04:56:05.830Z,78.51
2022-08-26T04:58:33.424Z,77.69
2022-08-26T05:01:00.402Z,78.19
2022-08-26T05:03:30.583Z,80.00
2022-08-26T05:05:58.586Z,78.98
2022-08-26T05:08:25.665Z,78.50
2022-08-26T05:10:57.262Z,77.55
2022-08-26T05:13:26.812Z,77.72
2022-08-26T05:15:54.346Z,77.99
2022-08-26T05:18:25.299Z,78.99
2022-08-26T05:20:54.720Z,78.96
2022-08-26T05:23:22.741Z,77.45
2022-08-26T05:25:50.744Z,77.71
2022-08-26T05:28:19.369Z,77.95
2022-08-26T05:30:46.434Z,77.52
2022-08-26T05:33:13.119Z,77.76
2022-08-26T05:35:39.825Z,78.57
2022-08-26T05:38:12.655Z,78.02
2022-08-26T05:40:42.920Z,77.67
2022-08-26T05:43:13.363Z,77.93
2022-08-26T05:45:46.599Z,78.26
2022-08-26T05:48:16.114Z,79.01
2022-08-26T05:50:48.133Z,78.72
2022-08-26T05:53:19.070Z,77.69
2022-08-26T05:55:53.303Z,77.98
2022-08-26T05:58:21.679Z,77.91
2022-08-26T06:01:05.453Z,78.03
2022-08-26T06:03:36.043Z,77.32
2022-08-26T06:06:08.025Z,77.39
2022-08-26T06:08:35.641Z,76.71
2022-08-26T06:11:06.192Z,76.31
2022-08-26T06:13:35.042Z,76.02
2022-08-26T06:16:05.788Z,76.40
2022-08-26T06:18:36.270Z,77.11
2022-08-26T06:21:24.606Z,78.12
2022-08-26T06:24:12.262Z,77.99
2022-08-26T06:26:39.847Z,77.05
2022-08-26T06:32:36.320Z,78.08
2022-08-26T06:35:03.216Z,78.22
2022-08-26T06:37:29.975Z,78.45
2022-08-26T06:39:56.584Z,77.10
2022-08-26T06:42:24.124Z,77.26
2022-08-26T06:44:50.541Z,77.15
2022-08-26T06:47:17.117Z,76.20
2022-08-26T06:49:44.310Z,76.96
2022-08-26T06:52:11.190Z,76.34
2022-08-26T06:54:38.851Z,74.96
2022-08-26T06:57:05.478Z,74.99
2022-08-26T06:59:33.540Z,75.63
2022-08-26T07:02:00.930Z,76.42
2022-08-26T07:04:29.422Z,75.19
2022-08-26T07:06:56.103Z,74.20
2022-08-26T07:09:25.139Z,76.12
2022-08-26T07:11:54.000Z,77.10
2022-08-26T07:14:21.779Z,77.71
2022-08-26T07:16:50.095Z,78.02
2022-08-26T07:19:30.803Z,77.79
2022-08-26T07:22:04.030Z,77.28
2022-08-26T07:24:32.379Z,76.58
2022-08-26T07:27:04.869Z,76.35
2022-08-26T07:29:32.358Z,75.99
2022-08-26T07:31:58.883Z,74.61
2022-08-26T07:34:27.177Z,74.49
2022-08-26T07:36:55.191Z,74.14
2022-08-26T07:39:22.272Z,74.58
2022-08-26T07:41:48.836Z,75.63
2022-08-26T07:44:15.656Z,75.06
2022-08-26T07:46:44.118Z,75.34
2022-08-26T07:49:12.133Z,75.34
2022-08-26T07:51:39.669Z,75.27
2022-08-26T07:54:07.011Z,74.22
2022-08-26T07:56:33.563Z,75.96
2022-08-26T07:59:00.072Z,75.48
2022-08-26T08:01:29.643Z,74.21
2022-08-26T08:03:57.381Z,73.73
2022-08-26T08:06:27.330Z,74.45
2022-08-26T08:08:55.551Z,74.22
2022-08-26T08:11:23.546Z,73.62
2022-08-26T08:13:55.973Z,73.75
2022-08-26T08:16:26.098Z,73.75
2022-08-26T08:18:53.449Z,73.93
2022-08-26T08:21:21.842Z,75.50
2022-08-26T08:23:54.957Z,75.10
2022-08-26T08:26:22.618Z,75.30
2022-08-26T08:28:49.570Z,74.42
2022-08-26T08:31:52.073Z,73.94
2022-08-26T08:34:11.004Z,74.16
2022-08-26T08:36:37.551Z,74.46
2022-08-26T08:39:04.983Z,74.49
2022-08-26T08:41:38.849Z,74.40
2022-08-26T08:44:11.802Z,74.08
2022-08-26T08:46:40.841Z,73.28
2022-08-26T08:49:09.854Z,72.74
2022-08-26T08:51:49.430Z,73.28
2022-08-26T08:54:16.548Z,73.72
2022-08-26T08:57:01.059Z,74.71
2022-08-26T08:59:45.018Z,74.27
2022-08-26T09:02:31.561Z,74.20
2022-08-26T09:05:21.362Z,74.34
2022-08-26T09:08:11.932Z,74.28
2022-08-26T09:10:43.442Z,73.30
2022-08-26T09:13:16.956Z,73.06
2022-08-26T09:16:07.323Z,73.60
2022-08-26T09:18:48.980Z,74.65
2022-08-26T09:21:18.000Z,75.55
2022-08-26T09:23:49.358Z,74.87
2022-08-26T09:26:24.753Z,73.90
2022-08-26T09:28:57.493Z,72.94
2022-08-26T09:31:36.301Z,73.41
2022-08-26T09:34:19.974Z,73.05
2022-08-26T09:36:49.518Z,72.69
2022-08-26T09:39:28.084Z,71.79
2022-08-26T09:42:02.311Z,71.37
2022-08-26T09:44:29.192Z,70.04
2022-08-26T09:47:02.663Z,70.70
2022-08-26T09:49:36.921Z,71.79
2022-08-26T09:52:26.593Z,71.62
2022-08-26T09:55:20.437Z,71.47
2022-08-26T09:57:52.571Z,69.43
2022-08-26T10:00:38.874Z,68.88
2022-08-26T10:03:12.489Z,69.24
2022-08-26T10:05:45.822Z,68.52
2022-08-26T10:08:23.702Z,67.44
2022-08-26T10:10:53.421Z,68.24
2022-08-26T10:13:29.527Z,68.67
2022-08-26T10:16:01.403Z,68.61
2022-08-26T10:18:35.474Z,68.62
2022-08-26T10:21:18.024Z,68.02
2022-08-26T10:23:53.260Z,67.57
2022-08-26T10:26:27.850Z,69.36
2022-08-26T10:29:08.916Z,70.46
2022-08-26T10:31:40.143Z,71.42
2022-08-26T10:34:09.341Z,70.81
2022-08-26T10:39:58.549Z,70.14
2022-08-26T10:42:39.946Z,70.61
2022-08-26T10:45:14.948Z,70.98
2022-08-26T10:48:00.055Z,70.85
2022-08-26T10:50:41.742Z,69.49
2022-08-26T10:53:42.614Z,68.14
2022-08-26T10:56:29.825Z,67.03
2022-08-26T10:59:16.430Z,67.73
2022-08-26T11:01:53.867Z,66.38
2022-08-26T11:04:35.746Z,65.48
2022-08-26T11:07:42.592Z,65.67
2022-08-26T11:10:53.326Z,64.89
2022-08-26T11:13:41.662Z,63.85
2022-08-26T11:16:09.359Z,62.67
2022-08-26T11:18:41.860Z,62.88
2022-08-26T11:21:43.660Z,63.79
2022-08-26T11:24:45.148Z,63.81
2022-08-26T11:27:37.302Z,64.48
2022-08-26T11:30:13.197Z,63.75
2022-08-26T11:32:40.015Z,62.64
2022-08-26T11:35:29.323Z,63.49
2022-08-26T11:38:25.070Z,64.12
2022-08-26T11:41:08.757Z,64.09
2022-08-26T11:43:37.586Z,63.84
2022-08-26T11:46:10.966Z,63.76
2022-08-26T11:48:43.085Z,64.42
2022-08-26T11:51:18.605Z,65.78
2022-08-26T11:53:47.189Z,65.25
2022-08-26T11:56:27.038Z,64.90
2022-08-26T11:59:02.151Z,65.10
2022-08-26T12:01:35.663Z,64.66
2022-08-26T12:04:09.879Z,65.29
2022-08-26T12:06:43.441Z,65.39
2022-08-26T12:09:21.758Z,64.74
2022-08-26T12:11:48.283Z,64.02
2022-08-26T12:14:22.453Z,62.95
2022-08-26T12:16:48.994Z,62.06
2022-08-26T12:19:28.001Z,62.10
2022-08-26T12:22:03.418Z,61.99
2022-08-26T12:24:30.237Z,62.80
2022-08-26T12:27:16.317Z,62.31
2022-08-26T12:29:42.799Z,61.46
2022-08-26T12:32:17.696Z,60.83
2022-08-26T12:34:47.172Z,61.01
2022-08-26T12:37:15.036Z,61.36
2022-08-26T12:39:44.584Z,62.01
2022-08-26T12:42:16.756Z,61.22
2022-08-26T12:45:09.947Z,61.60
2022-08-26T12:47:45.171Z,62.06
2022-08-26T12:50:24.909Z,61.01
2022-08-26T12:52:57.689Z,61.64
2022-08-26T12:55:32.023Z,61.75
2022-08-26T12:58:17.394Z,61.61
2022-08-26T13:00:48.889Z,62.87
2022-08-26T13:03:33.958Z,63.04
2022-08-26T13:06:22.365Z,63.23
2022-08-26T13:08:53.086Z,62.63
2022-08-26T13:11:24.598Z,62.28
2022-08-26T13:14:07.458Z,62.51
2022-08-26T13:16:35.879Z,62.32
2022-08-26T13:19:06.197Z,61.26
2022-08-26T13:21:58.168Z,61.20
2022-08-26T13:24:40.260Z,62.11
2022-08-26T13:27:08.839Z,61.38
2022-08-26T13:29:35.945Z,61.48
2022-08-26T13:32:04.841Z,62.70
2022-08-26T13:34:32.438Z,64.93
2022-08-26T13:36:59.546Z,66.13
2022-08-26T13:39:26.323Z,66.20
2022-08-26T13:41:53.522Z,65.76
2022-08-26T13:44:20.147Z,65.56
2022-08-26T13:46:46.698Z,66.46
2022-08-26T13:49:13.952Z,66.65
2022-08-26T13:51:40.541Z,66.50
2022-08-26T13:54:07.046Z,66.38
2022-08-26T13:56:34.462Z,66.41
2022-08-26T13:59:01.399Z,66.93
2022-08-26T14:01:30.454Z,66.57
2022-08-26T14:03:57.580Z,66.95
2022-08-26T14:06:24.948Z,66.97
2022-08-26T14:08:51.446Z,67.17
2022-08-26T14:11:18.422Z,68.24
2022-08-26T14:13:45.007Z,68.72
2022-08-26T14:16:17.199Z,68.74
2022-08-26T14:18:48.565Z,68.27
2022-08-26T14:21:17.296Z,68.97
2022-08-26T14:23:43.748Z,68.63
2022-08-26T14:26:16.877Z,68.20
2022-08-26T14:28:58.090Z,68.17
2022-08-26T14:31:26.821Z,68.03
2022-08-26T14:33:53.680Z,68.89
2022-08-26T14:36:29.057Z,69.52
2022-08-26T14:38:58.281Z,69.78
2022-08-26T14:41:25.376Z,68.22
2022-08-26T14:44:01.651Z,69.14
2022-08-26T14:46:31.483Z,68.32
2022-08-26T14:49:01.531Z,68.08
2022-08-26T14:51:28.939Z,68.34
2022-08-26T14:54:14.143Z,67.93
2022-08-26T14:56:48.833Z,67.79
2022-08-26T14:59:19.310Z,68.31
2022-08-26T15:01:45.873Z,68.55
2022-08-26T15:04:12.787Z,68.93
2022-08-26T15:06:39.305Z,68.99
2022-08-26T15:09:06.528Z,68.65
2022-08-26T15:11:33.115Z,66.01
2022-08-26T15:13:59.907Z,62.48
2022-08-26T15:16:28.698Z,61.99
2022-08-26T15:18:55.951Z,62.21
2022-08-26T15:21:23.201Z,62.08
2022-08-26T15:23:50.769Z,61.56
2022-08-26T15:26:18.089Z,61.29
2022-08-26T15:28:44.841Z,60.86
2022-08-26T15:31:11.371Z,60.85
2022-08-26T15:33:39.157Z,61.49
2022-08-26T15:36:07.225Z,62.78
2022-08-26T15:38:36.994Z,61.95
2022-08-26T15:41:05.081Z,62.81
2022-08-26T15:43:31.990Z,62.59
2022-08-26T15:45:58.977Z,62.60
2022-08-26T15:48:26.131Z,62.91
2022-08-26T15:51:00.008Z,64.21
2022-08-26T15:53:28.443Z,63.66
2022-08-26T15:55:58.688Z,64.45
2022-08-26T15:58:26.998Z,63.21
2022-08-26T16:00:55.112Z,64.12
2022-08-26T16:03:21.804Z,64.42
2022-08-26T16:05:48.750Z,64.56
2022-08-26T16:08:15.703Z,64.32
2022-08-26T16:10:50.021Z,64.50
2022-08-26T16:13:19.615Z,64.38
2022-08-26T16:15:47.643Z,64.33
2022-08-26T16:18:15.439Z,64.06
2022-08-26T16:20:55.300Z,63.93
2022-08-26T16:23:37.322Z,63.90
2022-08-26T16:26:10.594Z,63.67
2022-08-26T16:28:37.666Z,63.68
2022-08-26T16:31:04.841Z,63.58
2022-08-26T16:33:31.458Z,63.98
2022-08-26T16:35:58.590Z,64.20
2022-08-26T16:38:25.097Z,64.07
2022-08-26T16:40:51.599Z,64.18
2022-08-26T16:43:18.058Z,63.89
2022-08-26T16:45:44.507Z,63.85
2022-08-26T16:48:11.446Z,64.17
2022-08-26T16:50:40.551Z,64.33
2022-08-26T16:53:07.351Z,64.26
2022-08-26T16:55:34.822Z,64.75
2022-08-26T16:58:02.238Z,65.69
2022-08-26T17:00:31.435Z,65.20
2022-08-26T17:03:00.085Z,65.54
2022-08-26T17:05:27.643Z,65.56
2022-08-26T17:07:56.082Z,65.65
2022-08-26T17:10:24.473Z,65.56
2022-08-26T17:12:51.526Z,65.83
2022-08-26T17:15:18.985Z,65.99
2022-08-26T17:17:45.449Z,66.00
2022-08-26T17:20:14.868Z,65.91
2022-08-26T17:22:44.738Z,66.18
2022-08-26T17:25:14.172Z,66.03
2022-08-26T17:27:40.896Z,66.14
2022-08-26T17:30:08.179Z,66.18
2022-08-26T17:32:35.342Z,66.19
2022-08-26T17:35:02.974Z,66.29
2022-08-26T17:37:29.450Z,66.31
2022-08-26T17:39:56.194Z,66.14
2022-08-26T17:42:22.688Z,66.20
2022-08-26T17:44:58.459Z,66.23
2022-08-26T17:47:24.991Z,66.64
2022-08-26T17:49:51.483Z,66.79
2022-08-26T17:52:17.941Z,66.73
2022-08-26T17:57:40.823Z,66.57
2022-08-26T18:00:13.737Z,66.22
2022-08-26T18:02:40.951Z,66.16
2022-08-26T18:05:08.852Z,66.03
2022-08-26T18:07:43.719Z,66.53
2022-08-26T18:10:13.735Z,66.27
2022-08-26T18:12:40.920Z,66.00
2022-08-26T18:15:08.545Z,65.68
2022-08-26T18:17:35.312Z,65.89
2022-08-26T18:20:02.064Z,66.15
2022-08-26T18:22:28.798Z,66.21
2022-08-26T18:24:58.848Z,66.42
2022-08-26T18:27:32.934Z,66.25
2022-08-26T18:29:59.390Z,66.27
2022-08-26T18:32:25.840Z,66.58
2022-08-26T18:34:52.274Z,67.05
2022-08-26T18:37:18.983Z,67.06
2022-08-26T18:39:45.496Z,66.94
2022-08-26T18:42:12.783Z,66.88
2022-08-26T18:44:39.366Z,67.20
2022-08-26T18:47:05.984Z,67.02
2022-08-26T18:49:32.596Z,66.93
2022-08-26T18:51:59.194Z,66.95
2022-08-26T18:54:25.925Z,66.75
2022-08-26T18:56:52.956Z,66.70
2022-08-26T18:59:19.556Z,67.14
2022-08-26T19:01:53.271Z,67.05
2022-08-26T19:04:20.177Z,67.38
2022-08-26T19:06:49.147Z,67.22
2022-08-26T19:09:17.885Z,67.26
2022-08-26T19:11:45.193Z,67.01
2022-08-26T19:14:14.947Z,67.08
2022-08-26T19:16:44.557Z,67.21
2022-08-26T19:19:11.810Z,67.35
2022-08-26T19:21:39.646Z,67.27
2022-08-26T19:24:13.105Z,67.26
2022-08-26T19:26:39.639Z,67.35
2022-08-26T19:29:06.670Z,67.47
2022-08-26T19:31:33.477Z,67.69
2022-08-26T19:34:00.213Z,67.37
2022-08-26T19:36:27.901Z,67.54
2022-08-26T19:38:55.871Z,67.70
2022-08-26T19:41:36.564Z,68.29
2022-08-26T19:44:06.977Z,68.39
2022-08-26T19:46:33.420Z,68.24
2022-08-26T19:48:59.873Z,68.38
2022-08-26T19:51:29.208Z,68.54
2022-08-26T19:53:58.222Z,69.03
2022-08-26T19:56:25.397Z,68.94
2022-08-26T19:58:51.892Z,69.07
2022-08-26T20:01:18.617Z,69.22
2022-08-26T20:03:46.018Z,69.21
2022-08-26T20:06:14.602Z,69.28
2022-08-26T20:08:42.242Z,69.41
2022-08-26T20:11:12.156Z,69.03
2022-08-26T20:13:39.703Z,69.06
2022-08-26T20:16:06.452Z,69.10
2022-08-26T20:18:51.945Z,69.07
2022-08-26T20:21:27.280Z,69.26
2022-08-26T20:24:07.120Z,69.21
2022-08-26T20:26:35.227Z,69.02
2022-08-26T20:29:02.069Z,69.24
2022-08-26T20:31:29.659Z,68.70
2022-08-26T20:33:56.156Z,68.91
2022-08-26T20:36:24.498Z,69.27
2022-08-26T20:38:51.031Z,69.18
2022-08-26T20:41:17.833Z,69.05
2022-08-26T20:43:46.204Z,68.80
2022-08-26T20:46:18.222Z,68.75
2022-08-26T20:48:48.279Z,69.09
2022-08-26T20:51:15.635Z,68.79
2022-08-26T20:53:42.388Z,68.71
2022-08-26T20:56:10.148Z,68.88
2022-08-26T20:58:37.596Z,69.05
2022-08-26T21:01:07.937Z,69.73
2022-08-26T21:03:35.925Z,69.84
2022-08-26T21:06:03.492Z,69.81
2022-08-26T21:08:30.002Z,69.81
2022-08-26T21:10:59.721Z,69.88
2022-08-26T21:13:26.219Z,70.15
2022-08-26T21:15:56.387Z,69.94
2022-08-26T21:18:22.853Z,69.76
2022-08-26T21:20:49.303Z,69.91
2022-08-26T21:23:15.732Z,69.84
2022-08-26T21:25:42.224Z,69.93
2022-08-26T21:28:08.925Z,69.71
2022-08-26T21:30:40.354Z,69.96
2022-08-26T21:33:07.636Z,69.97
2022-08-26T21:35:34.593Z,70.05
2022-08-26T21:38:01.182Z,70.05
2022-08-26T21:40:27.890Z,70.27
2022-08-26T21:42:54.434Z,70.33
2022-08-26T21:45:20.869Z,70.48
2022-08-26T21:47:47.426Z,70.38
2022-08-26T21:50:13.956Z,70.40
2022-08-26T21:52:40.547Z,70.19
2022-08-26T21:55:08.987Z,70.12
2022-08-26T21:57:36.379Z,70.13
2022-08-26T22:00:05.340Z,70.27
2022-08-26T22:02:32.678Z,70.50
2022-08-26T22:04:59.156Z,70.73
2022-08-26T22:07:25.667Z,71.64
2022-08-26T22:09:52.181Z,71.41
2022-08-26T22:12:19.001Z,71.27
2022-08-26T22:14:45.702Z,72.21
2022-08-26T22:17:12.650Z,72.17
2022-08-26T22:19:45.746Z,72.67
2022-08-26T22:22:13.364Z,73.33
2022-08-26T22:24:39.920Z,73.94
2022-08-26T22:27:06.767Z,73.48
2022-08-26T22:29:33.374Z,73.21
2022-08-26T22:32:01.025Z,73.23
2022-08-26T22:34:28.015Z,73.81
2022-08-26T22:36:54.881Z,74.72
2022-08-26T22:39:24.334Z,74.85
2022-08-26T22:41:52.833Z,74.86
2022-08-26T22:44:22.037Z,74.31
2022-08-26T22:46:50.207Z,74.77
2022-08-26T22:49:17.681Z,74.93
2022-08-26T22:51:45.332Z,74.91
2022-08-26T22:54:12.262Z,75.25
2022-08-26T22:56:39.617Z,75.63
2022-08-26T22:59:07.838Z,75.91
2022-08-26T23:01:39.003Z,76.18
2022-08-26T23:04:07.030Z,76.05
2022-08-26T23:06:41.628Z,75.64
2022-08-26T23:09:09.334Z,75.88
2022-08-26T23:11:36.178Z,76.17
2022-08-26T23:14:06.322Z,75.97
2022-08-26T23:16:39.355Z,75.67
2022-08-26T23:19:10.158Z,76.53
2022-08-26T23:21:36.677Z,77.18
2022-08-26T23:24:04.379Z,77.44
2022-08-26T23:26:31.733Z,77.63
2022-08-26T23:28:58.481Z,77.74
2022-08-26T23:31:25.069Z,77.69
2022-08-26T23:34:09.970Z,77.71
2022-08-26T23:36:36.725Z,77.18
2022-08-26T23:39:05.883Z,77.17
2022-08-26T23:41:32.893Z,77.24
2022-08-26T23:44:02.933Z,78.69
2022-08-26T23:46:30.302Z,78.93
2022-08-26T23:48:56.800Z,78.80
2022-08-26T23:51:41.835Z,78.66
2022-08-26T23:54:08.344Z,78.83
2022-08-26T23:56:34.796Z,78.61
